Time;durP1;ratioP1;P1;durP2;ratioP2;P2;SDS_P1;SDS_P2;PMS_P1;PMS_P2;Temp;Humidity;BMP_temperature;BMP_pressure;BME280_temperature;BME280_humidity;BME280_pressure;Samples;Min_cycle;Max_cycle;Signal;HPM_P1;HPM_P2
2023/04/09 00:00:41;;;;;;;108.03;49.03;;;6.30;99.90;;;;;;5057150;28;20444;-83
2023/04/09 00:03:06;;;;;;;113.68;50.00;;;6.30;99.90;;;;;;5061956;28;20493;-83
2023/04/09 00:05:32;;;;;;;101.18;46.03;;;6.30;99.90;;;;;;5064697;28;20031;-83
2023/04/09 00:07:57;;;;;;;89.97;45.40;;;6.30;99.90;;;;;;5062797;28;20013;-83
2023/04/09 00:10:23;;;;;;;101.93;47.92;;;6.30;99.90;;;;;;5063248;28;20023;-83
2023/04/09 00:12:49;;;;;;;111.13;49.67;;;6.30;99.90;;;;;;5061058;28;20071;-83
2023/04/09 00:15:14;;;;;;;95.50;45.47;;;6.30;99.90;;;;;;5058542;28;20400;-82
2023/04/09 00:17:40;;;;;;;95.25;46.17;;;6.30;99.90;;;;;;5055895;28;20470;-82
2023/04/09 00:20:06;;;;;;;97.22;44.35;;;6.30;99.90;;;;;;5062585;28;20036;-82
2023/04/09 00:22:32;;;;;;;102.47;46.17;;;6.30;99.90;;;;;;5062951;28;20029;-82
2023/04/09 00:24:58;;;;;;;102.28;48.22;;;6.30;99.90;;;;;;5054548;28;20028;-83
2023/04/09 00:27:24;;;;;;;97.85;46.20;;;6.30;99.90;;;;;;5059566;28;20063;-82
2023/04/09 00:29:53;;;;;;;92.22;43.50;;;6.40;99.90;;;;;;5064765;28;20037;-82
2023/04/09 00:32:18;;;;;;;95.25;45.38;;;6.30;99.90;;;;;;5063651;28;20028;-82
2023/04/09 00:34:44;;;;;;;96.18;43.83;;;6.30;99.90;;;;;;5062716;28;20036;-83
2023/04/09 00:37:10;;;;;;;93.88;45.80;;;6.30;99.90;;;;;;5062674;28;20024;-83
2023/04/09 00:39:35;;;;;;;98.55;46.08;;;6.30;99.90;;;;;;5064736;28;20021;-83
2023/04/09 00:42:01;;;;;;;102.55;46.38;;;6.30;99.90;;;;;;5060836;28;20209;-82
2023/04/09 00:44:27;;;;;;;95.50;44.13;;;6.30;99.90;;;;;;5061075;28;20036;-82
2023/04/09 00:46:59;;;;;;;89.30;44.28;;;6.30;99.90;;;;;;5067109;28;20032;-83
2023/04/09 00:49:25;;;;;;;98.55;46.20;;;6.20;99.90;;;;;;5055574;28;20021;-82
2023/04/09 00:51:51;;;;;;;96.47;47.88;;;6.30;99.90;;;;;;5059894;28;20032;-82
2023/04/09 00:54:16;;;;;;;109.07;48.72;;;6.20;99.90;;;;;;5060938;28;20739;-82
2023/04/09 00:56:43;;;;;;;91.57;45.22;;;6.30;99.90;;;;;;5065568;28;20385;-83
2023/04/09 00:59:08;;;;;;;99.35;48.28;;;6.30;99.90;;;;;;5066078;28;20043;-82
2023/04/09 01:01:34;;;;;;;102.35;47.28;;;6.20;99.90;;;;;;5065162;28;20024;-82
2023/04/09 01:04:00;;;;;;;98.28;45.90;;;6.20;99.90;;;;;;5066230;28;20076;-82
2023/04/09 01:06:26;;;;;;;100.32;47.78;;;6.20;99.90;;;;;;5064655;28;20409;-84
2023/04/09 01:09:00;;;;;;;105.78;47.50;;;6.20;99.90;;;;;;5059078;28;20029;-83
2023/04/09 01:12:10;;;;;;;97.60;45.53;;;6.10;99.90;;;;;;5066594;28;20052;-83
2023/04/09 01:14:58;;;;;;;107.80;46.53;;;6.10;99.90;;;;;;5040134;28;20390;-83
2023/04/09 01:17:34;;;;;;;92.45;44.80;;;6.20;99.90;;;;;;5058583;28;20106;-83
2023/04/09 01:20:12;;;;;;;100.82;47.92;;;6.20;99.90;;;;;;5057914;28;20025;-83
2023/04/09 01:23:15;;;;;;;97.60;45.60;;;6.20;99.90;;;;;;5058586;28;20030;-82
2023/04/09 01:25:52;;;;;;;98.85;46.40;;;6.20;99.90;;;;;;5050968;28;20108;-82
2023/04/09 01:28:26;;;;;;;96.97;48.10;;;6.20;99.90;;;;;;5063360;28;20478;-83
2023/04/09 01:31:12;;;;;;;100.05;47.08;;;6.20;99.90;;;;;;5063496;28;20032;-83
2023/04/09 01:33:39;;;;;;;108.57;47.55;;;6.20;99.90;;;;;;5060079;28;20017;-82
2023/04/09 01:36:06;;;;;;;98.43;46.28;;;6.20;99.90;;;;;;5056443;28;20060;-83
2023/04/09 01:38:34;;;;;;;100.88;45.08;;;6.20;99.90;;;;;;5063919;28;20020;-82
2023/04/09 01:41:02;;;;;;;97.88;45.85;;;6.20;99.90;;;;;;5060283;28;20044;-83
2023/04/09 01:43:29;;;;;;;102.82;47.45;;;6.10;99.90;;;;;;5065575;28;20036;-82
2023/04/09 01:45:54;;;;;;;113.05;50.50;;;6.20;99.90;;;;;;5066610;28;20080;-83
2023/04/09 01:48:21;;;;;;;109.13;49.95;;;6.20;99.90;;;;;;5064231;28;20056;-83
2023/04/09 01:50:46;;;;;;;105.80;48.55;;;6.20;99.90;;;;;;5061489;28;20036;-82
2023/04/09 01:53:12;;;;;;;103.85;47.83;;;6.10;99.90;;;;;;5059710;28;20025;-82
2023/04/09 01:55:38;;;;;;;111.47;50.42;;;6.20;99.90;;;;;;5061605;28;20044;-82
2023/04/09 01:58:03;;;;;;;106.45;48.80;;;6.10;99.90;;;;;;5062948;28;20020;-82
2023/04/09 02:00:37;;;;;;;112.68;50.72;;;6.10;99.90;;;;;;5066254;28;20036;-82
2023/04/09 02:03:07;;;;;;;104.88;48.20;;;6.10;99.90;;;;;;5058292;28;20048;-83
2023/04/09 02:05:41;;;;;;;110.30;49.70;;;6.10;99.90;;;;;;5063215;28;20025;-83
2023/04/09 02:08:09;;;;;;;111.75;50.42;;;6.10;99.90;;;;;;5056197;28;20028;-83
2023/04/09 02:10:36;;;;;;;115.57;51.42;;;6.10;99.90;;;;;;5063449;28;20036;-82
2023/04/09 02:13:05;;;;;;;95.30;45.70;;;6.10;99.90;;;;;;5061541;28;20446;-82
2023/04/09 02:15:33;;;;;;;113.18;49.42;;;6.10;99.90;;;;;;5062292;28;20028;-82
2023/04/09 02:17:58;;;;;;;120.47;52.85;;;6.10;99.90;;;;;;5062644;28;20444;-83
2023/04/09 02:20:24;;;;;;;105.03;48.58;;;6.10;99.90;;;;;;5062636;28;20068;-82
2023/04/09 02:22:51;;;;;;;105.10;46.17;;;6.10;99.90;;;;;;5064122;28;20025;-82
2023/04/09 02:25:17;;;;;;;97.22;44.60;;;6.10;99.90;;;;;;5060783;28;20047;-83
2023/04/09 02:27:42;;;;;;;99.70;46.30;;;6.10;99.90;;;;;;5057996;28;20028;-82
2023/04/09 02:30:10;;;;;;;94.28;44.72;;;6.10;99.90;;;;;;5057557;28;20032;-83
2023/04/09 02:32:35;;;;;;;121.45;52.30;;;6.10;99.90;;;;;;5060524;28;20028;-82
2023/04/09 02:35:01;;;;;;;100.65;45.55;;;6.10;99.90;;;;;;5059413;28;20037;-82
2023/04/09 02:37:26;;;;;;;101.07;45.83;;;6.10;99.90;;;;;;5064189;28;20177;-83
2023/04/09 02:39:52;;;;;;;95.97;45.67;;;6.10;99.90;;;;;;5063260;28;20028;-82
2023/04/09 02:42:17;;;;;;;93.32;42.58;;;6.10;99.90;;;;;;5063162;28;20107;-82
2023/04/09 02:44:46;;;;;;;93.72;44.05;;;6.10;99.90;;;;;;5061159;28;20082;-83
2023/04/09 02:47:11;;;;;;;95.32;45.85;;;6.10;99.90;;;;;;5062269;28;20060;-83
2023/04/09 02:49:37;;;;;;;125.38;54.78;;;6.10;99.90;;;;;;5064278;28;20109;-82
2023/04/09 02:52:03;;;;;;;101.18;46.45;;;6.10;99.90;;;;;;5065072;28;20113;-83
2023/04/09 02:54:28;;;;;;;101.90;46.67;;;6.10;99.90;;;;;;5063031;28;20024;-83
2023/04/09 02:56:56;;;;;;;98.88;44.83;;;6.00;99.90;;;;;;5061795;28;20119;-83
2023/04/09 02:59:21;;;;;;;95.57;43.67;;;6.00;99.90;;;;;;5061030;28;20388;-82
2023/04/09 03:01:47;;;;;;;113.88;52.92;;;6.10;99.90;;;;;;5057381;28;20107;-82
2023/04/09 03:04:12;;;;;;;103.63;49.05;;;6.10;99.90;;;;;;5065051;28;20040;-82
2023/04/09 03:06:38;;;;;;;114.30;50.67;;;6.10;99.90;;;;;;5062503;28;20056;-82
2023/04/09 03:09:03;;;;;;;102.20;45.05;;;6.00;99.90;;;;;;5062442;28;20381;-81
2023/04/09 03:11:29;;;;;;;99.40;46.30;;;6.00;99.90;;;;;;5065018;28;20111;-83
2023/04/09 03:13:55;;;;;;;110.78;47.60;;;6.10;99.90;;;;;;5063237;28;20460;-83
2023/04/09 03:16:20;;;;;;;99.40;46.35;;;6.00;99.90;;;;;;5056832;28;20498;-83
2023/04/09 03:18:46;;;;;;;100.82;43.75;;;6.00;99.90;;;;;;5064609;28;20100;-82
2023/04/09 03:21:11;;;;;;;110.30;48.38;;;6.10;99.90;;;;;;5055428;28;20120;-82
2023/04/09 03:23:37;;;;;;;116.95;49.55;;;6.00;99.90;;;;;;5056457;28;20033;-82
2023/04/09 03:26:06;;;;;;;101.28;44.92;;;6.10;99.90;;;;;;5049482;28;20025;-83
2023/04/09 03:28:32;;;;;;;99.63;45.72;;;6.10;99.90;;;;;;5062717;28;20025;-83
2023/04/09 03:30:57;;;;;;;104.18;46.50;;;6.10;99.90;;;;;;5060553;28;20025;-83
2023/04/09 03:33:24;;;;;;;112.28;48.72;;;6.10;99.90;;;;;;5063000;28;20017;-83
2023/04/09 03:35:50;;;;;;;117.80;48.45;;;6.10;99.90;;;;;;5060455;28;20031;-83
2023/04/09 03:38:16;;;;;;;104.63;48.53;;;6.10;99.90;;;;;;5059854;28;20048;-81
2023/04/09 03:40:41;;;;;;;108.68;47.38;;;6.10;99.90;;;;;;5063372;28;20472;-83
2023/04/09 03:43:07;;;;;;;133.23;57.00;;;6.10;99.90;;;;;;5063088;28;20033;-83
2023/04/09 03:45:33;;;;;;;113.28;50.97;;;6.00;99.90;;;;;;5057112;28;20043;-83
2023/04/09 03:47:58;;;;;;;108.40;47.85;;;6.00;99.90;;;;;;5062006;28;20097;-83
2023/04/09 03:50:24;;;;;;;105.82;46.97;;;6.00;99.90;;;;;;5064539;28;20086;-83
2023/04/09 03:52:50;;;;;;;115.90;50.22;;;6.10;99.90;;;;;;5063280;28;20028;-83
2023/04/09 03:55:15;;;;;;;101.25;46.17;;;6.10;99.90;;;;;;5058042;28;20037;-83
2023/04/09 03:57:41;;;;;;;99.28;46.88;;;6.10;99.90;;;;;;5063472;28;20040;-83
2023/04/09 04:00:07;;;;;;;105.85;48.15;;;6.10;99.90;;;;;;5061035;28;20024;-83
2023/04/09 04:02:35;;;;;;;108.03;48.10;;;6.10;99.90;;;;;;5063646;28;20028;-83
2023/04/09 04:05:01;;;;;;;111.45;47.38;;;6.10;99.90;;;;;;5056237;28;20028;-83
2023/04/09 04:07:26;;;;;;;114.13;51.20;;;6.10;99.90;;;;;;5065354;28;20541;-83
2023/04/09 04:09:52;;;;;;;109.65;48.72;;;6.10;99.90;;;;;;5055407;28;20115;-83
2023/04/09 04:12:17;;;;;;;101.40;46.83;;;6.10;99.90;;;;;;5060311;28;20032;-83
2023/04/09 04:14:43;;;;;;;113.47;51.95;;;6.10;99.90;;;;;;5060271;28;20025;-83
2023/04/09 04:17:10;;;;;;;105.43;47.42;;;6.10;99.90;;;;;;5062236;28;20028;-83
2023/04/09 04:19:36;;;;;;;123.05;52.72;;;6.10;99.90;;;;;;5061885;28;20469;-83
2023/04/09 04:22:01;;;;;;;110.30;49.88;;;6.00;99.90;;;;;;5056556;28;20122;-83
2023/04/09 04:24:27;;;;;;;112.13;50.08;;;6.00;99.90;;;;;;5060923;28;20040;-83
2023/04/09 04:26:56;;;;;;;97.53;46.47;;;6.10;99.90;;;;;;5062426;28;20029;-83
2023/04/09 04:29:22;;;;;;;104.47;47.28;;;6.00;99.90;;;;;;5055810;28;20056;-83
2023/04/09 04:31:48;;;;;;;107.47;48.60;;;6.00;99.90;;;;;;5063282;28;20067;-83
2023/04/09 04:34:13;;;;;;;128.07;53.05;;;6.00;99.90;;;;;;5061985;28;20895;-83
2023/04/09 04:36:39;;;;;;;124.20;51.63;;;6.10;99.90;;;;;;5062261;28;20029;-83
2023/04/09 04:39:04;;;;;;;119.57;51.40;;;6.00;99.90;;;;;;5060836;28;20036;-83
2023/04/09 04:41:30;;;;;;;152.95;63.88;;;6.10;99.90;;;;;;5057712;28;20052;-83
2023/04/09 04:43:56;;;;;;;137.52;56.65;;;6.10;99.90;;;;;;5057813;28;20041;-83
2023/04/09 04:46:21;;;;;;;150.38;58.65;;;6.10;99.90;;;;;;5061176;28;20374;-82
2023/04/09 04:48:47;;;;;;;145.23;59.03;;;6.10;99.90;;;;;;5064218;28;20378;-83
2023/04/09 04:51:13;;;;;;;140.48;56.90;;;6.10;99.90;;;;;;5057173;28;20058;-83
2023/04/09 04:53:41;;;;;;;137.38;57.22;;;6.00;99.90;;;;;;5054363;28;20763;-83
2023/04/09 04:56:13;;;;;;;161.00;62.60;;;6.00;99.90;;;;;;5060788;28;20028;-83
2023/04/09 04:58:38;;;;;;;134.15;56.58;;;6.00;99.90;;;;;;5061658;28;20029;-83
2023/04/09 05:01:04;;;;;;;150.32;61.72;;;6.00;99.90;;;;;;5058465;28;20040;-83
2023/04/09 05:03:30;;;;;;;149.48;58.47;;;6.00;99.90;;;;;;5058079;28;20043;-82
2023/04/09 05:05:56;;;;;;;127.90;53.30;;;6.00;99.90;;;;;;5062285;28;20040;-83
2023/04/09 05:08:21;;;;;;;145.50;57.08;;;6.00;99.90;;;;;;5061567;28;20031;-83
2023/04/09 05:10:47;;;;;;;142.85;56.95;;;6.00;99.90;;;;;;5061408;28;20520;-83
2023/04/09 05:13:12;;;;;;;138.80;54.80;;;6.00;99.90;;;;;;5058774;28;20028;-83
2023/04/09 05:15:39;;;;;;;130.25;52.80;;;6.00;99.90;;;;;;5066191;28;20090;-83
2023/04/09 05:18:06;;;;;;;140.48;56.42;;;6.00;99.90;;;;;;5064945;28;20040;-83
2023/04/09 05:20:32;;;;;;;130.98;56.00;;;6.10;99.90;;;;;;5061776;28;20055;-83
2023/04/09 05:22:58;;;;;;;128.13;52.60;;;6.00;99.90;;;;;;5057555;28;20075;-83
2023/04/09 05:25:23;;;;;;;144.93;55.92;;;6.10;99.90;;;;;;5066956;28;20330;-83
2023/04/09 05:27:49;;;;;;;124.70;52.90;;;6.10;99.90;;;;;;5067732;28;20028;-83
2023/04/09 05:30:15;;;;;;;133.52;55.80;;;6.10;99.90;;;;;;5063310;28;20489;-83
2023/04/09 05:32:41;;;;;;;122.70;52.30;;;6.10;99.90;;;;;;5061711;28;20020;-83
2023/04/09 05:35:06;;;;;;;125.65;52.35;;;6.10;99.90;;;;;;5060798;28;20032;-83
2023/04/09 05:37:32;;;;;;;120.82;51.90;;;6.10;99.90;;;;;;5061228;28;20576;-84
2023/04/09 05:39:58;;;;;;;126.68;53.97;;;6.10;99.90;;;;;;5060247;28;20043;-84
2023/04/09 05:42:23;;;;;;;121.82;50.95;;;6.10;99.90;;;;;;5059151;28;20113;-84
2023/04/09 05:44:49;;;;;;;113.45;52.55;;;6.10;99.90;;;;;;5059820;28;20875;-84
2023/04/09 05:47:17;;;;;;;131.98;53.92;;;6.10;99.90;;;;;;5057395;28;20055;-84
2023/04/09 05:49:43;;;;;;;140.38;57.60;;;6.10;99.90;;;;;;5062158;28;20028;-83
2023/04/09 05:52:08;;;;;;;138.65;58.13;;;6.10;99.90;;;;;;5061759;28;20098;-84
2023/04/09 05:54:34;;;;;;;129.10;56.60;;;6.10;99.90;;;;;;5062737;28;20111;-84
2023/04/09 05:57:00;;;;;;;143.60;61.65;;;6.10;99.90;;;;;;5060028;28;20035;-84
2023/04/09 05:59:28;;;;;;;159.23;66.05;;;6.10;99.90;;;;;;5061712;28;20465;-84
2023/04/09 06:01:54;;;;;;;137.10;61.22;;;6.00;99.90;;;;;;5049345;28;20029;-85
2023/04/09 06:04:19;;;;;;;151.73;65.68;;;6.10;99.90;;;;;;5059574;28;20144;-84
2023/04/09 06:06:45;;;;;;;144.55;64.13;;;6.00;99.90;;;;;;5063494;28;20469;-84
2023/04/09 06:09:11;;;;;;;131.45;61.10;;;6.10;99.90;;;;;;5055899;28;20028;-84
2023/04/09 06:11:37;;;;;;;146.82;65.38;;;6.10;99.90;;;;;;5056094;28;20395;-84
2023/04/09 06:14:02;;;;;;;124.07;61.83;;;6.10;99.90;;;;;;5064582;28;20029;-85
2023/04/09 06:16:28;;;;;;;120.18;57.17;;;6.10;99.90;;;;;;5063222;28;20032;-83
2023/04/09 06:18:55;;;;;;;124.45;59.17;;;6.10;99.90;;;;;;5063293;28;20028;-84
2023/04/09 06:21:21;;;;;;;132.93;61.60;;;6.10;99.90;;;;;;5054697;28;20047;-83
2023/04/09 06:23:47;;;;;;;154.48;68.38;;;6.10;99.90;;;;;;5063867;28;20037;-84
2023/04/09 06:26:13;;;;;;;127.88;62.95;;;6.10;99.90;;;;;;5054666;28;20432;-84
2023/04/09 06:28:38;;;;;;;134.23;64.35;;;6.10;99.90;;;;;;5065708;28;20035;-84
2023/04/09 06:31:04;;;;;;;142.98;66.20;;;6.10;99.90;;;;;;5060352;28;20112;-84
2023/04/09 06:33:29;;;;;;;138.27;68.03;;;6.10;99.90;;;;;;5063044;28;20025;-84
2023/04/09 06:35:56;;;;;;;129.38;61.25;;;6.10;99.90;;;;;;5060235;28;20103;-85
2023/04/09 06:38:21;;;;;;;128.45;64.03;;;6.10;99.90;;;;;;5063139;28;20028;-84
2023/04/09 06:40:47;;;;;;;125.45;62.70;;;6.10;99.90;;;;;;5060227;28;20048;-84
2023/04/09 06:43:14;;;;;;;125.55;62.08;;;6.10;99.90;;;;;;5059263;28;20032;-84
2023/04/09 06:45:39;;;;;;;151.60;69.93;;;6.10;99.90;;;;;;5058689;28;20616;-84
2023/04/09 06:48:05;;;;;;;138.77;64.53;;;6.10;99.90;;;;;;5059639;28;20124;-84
2023/04/09 06:50:31;;;;;;;135.10;64.70;;;6.10;99.90;;;;;;5059548;28;20040;-84
2023/04/09 06:52:58;;;;;;;121.75;60.92;;;6.10;99.90;;;;;;5052454;28;20032;-83
2023/04/09 06:55:25;;;;;;;124.88;63.05;;;6.10;99.90;;;;;;5060910;28;20497;-85
2023/04/09 06:57:51;;;;;;;126.22;64.80;;;6.10;99.90;;;;;;5060260;28;20025;-84
2023/04/09 07:00:16;;;;;;;122.32;64.38;;;6.10;99.90;;;;;;5060613;28;20358;-84
2023/04/09 07:02:43;;;;;;;119.65;63.03;;;6.20;99.90;;;;;;5063066;28;20111;-83
2023/04/09 07:05:09;;;;;;;115.00;60.72;;;6.20;99.90;;;;;;5059045;28;20082;-84
2023/04/09 07:07:35;;;;;;;111.57;58.40;;;6.20;99.90;;;;;;5060896;28;20451;-83
2023/04/09 07:10:00;;;;;;;120.57;62.08;;;6.20;99.90;;;;;;5058930;28;20059;-84
2023/04/09 07:12:31;;;;;;;119.40;62.17;;;6.30;99.90;;;;;;5059016;28;20082;-84
2023/04/09 07:15:04;;;;;;;116.95;61.40;;;6.30;99.90;;;;;;5057344;28;20432;-85
2023/04/09 07:17:30;;;;;;;112.40;59.05;;;6.30;99.90;;;;;;5060903;28;20035;-84
2023/04/09 07:19:56;;;;;;;120.72;59.83;;;6.30;99.90;;;;;;5055572;28;20231;-83
2023/04/09 07:22:24;;;;;;;111.80;60.95;;;6.30;99.90;;;;;;5059283;28;20100;-84
2023/04/09 07:24:52;;;;;;;121.78;64.32;;;6.30;99.90;;;;;;5054178;28;20040;-85
2023/04/09 07:27:35;;;;;;;120.18;65.32;;;6.40;99.90;;;;;;5056662;28;20518;-85
2023/04/09 07:30:00;;;;;;;109.38;57.90;;;6.40;99.90;;;;;;5052668;28;20077;-84
2023/04/09 07:32:29;;;;;;;111.25;61.75;;;6.40;99.90;;;;;;5056332;28;20473;-83
2023/04/09 07:34:56;;;;;;;103.22;57.00;;;6.40;99.90;;;;;;5060326;28;20035;-85
2023/04/09 07:37:22;;;;;;;111.80;61.72;;;6.40;99.90;;;;;;5060112;28;20477;-84
2023/04/09 07:39:48;;;;;;;113.10;60.40;;;6.40;99.90;;;;;;5061862;28;20060;-84
2023/04/09 07:42:14;;;;;;;96.40;53.42;;;6.30;99.90;;;;;;5054459;28;20032;-83
2023/04/09 07:44:39;;;;;;;106.18;56.10;;;6.40;99.90;;;;;;5057613;28;20041;-84
2023/04/09 07:47:07;;;;;;;104.95;58.65;;;6.40;99.90;;;;;;5058588;28;20369;-84
2023/04/09 07:49:36;;;;;;;111.88;59.60;;;6.40;99.90;;;;;;5057734;28;20035;-86
2023/04/09 07:52:03;;;;;;;94.15;50.83;;;6.40;99.90;;;;;;5056592;28;20021;-84
2023/04/09 07:54:30;;;;;;;90.50;52.55;;;6.40;99.90;;;;;;5058035;28;20107;-83
2023/04/09 07:56:56;;;;;;;103.20;56.17;;;6.50;99.90;;;;;;5060480;28;20060;-84
2023/04/09 07:59:22;;;;;;;100.90;55.00;;;6.50;99.90;;;;;;5062855;28;20032;-83
2023/04/09 08:01:48;;;;;;;95.82;51.20;;;6.50;99.90;;;;;;5062189;28;20033;-83
2023/04/09 08:04:13;;;;;;;96.70;53.22;;;6.60;99.90;;;;;;5066020;28;20118;-83
2023/04/09 08:06:40;;;;;;;104.50;53.85;;;6.60;99.90;;;;;;5065231;28;20052;-83
2023/04/09 08:09:06;;;;;;;104.57;58.90;;;6.70;99.90;;;;;;5060895;28;20024;-83
2023/04/09 08:11:34;;;;;;;94.20;50.33;;;6.70;99.90;;;;;;5062672;28;20028;-83
2023/04/09 08:14:01;;;;;;;102.57;56.15;;;6.80;99.90;;;;;;5065434;28;20028;-84
2023/04/09 08:16:29;;;;;;;107.88;57.83;;;6.80;99.90;;;;;;5066505;28;20029;-83
2023/04/09 08:18:57;;;;;;;93.43;53.60;;;7.00;99.90;;;;;;5058332;28;20040;-83
2023/04/09 08:21:23;;;;;;;96.07;52.65;;;6.90;99.90;;;;;;5055394;28;20423;-84
2023/04/09 08:23:48;;;;;;;102.90;55.42;;;6.90;99.90;;;;;;5056873;28;20137;-83
2023/04/09 08:26:14;;;;;;;95.25;56.10;;;6.90;99.90;;;;;;5058694;28;20350;-84
2023/04/09 08:28:40;;;;;;;94.20;52.88;;;7.00;99.90;;;;;;5055859;28;20390;-83
2023/04/09 08:31:08;;;;;;;96.68;54.80;;;7.00;99.90;;;;;;5057938;28;20027;-83
2023/04/09 08:33:34;;;;;;;104.93;57.97;;;7.00;99.90;;;;;;5058339;28;20021;-84
2023/04/09 08:36:00;;;;;;;100.28;54.72;;;7.10;99.90;;;;;;5057269;28;20029;-83
2023/04/09 08:38:26;;;;;;;92.43;53.10;;;7.10;99.90;;;;;;5060085;28;20025;-83
2023/04/09 08:40:51;;;;;;;94.45;53.50;;;7.10;99.90;;;;;;5064535;28;20040;-83
2023/04/09 08:43:21;;;;;;;102.68;56.78;;;7.10;99.90;;;;;;5062388;28;20444;-83
2023/04/09 08:45:47;;;;;;;104.55;56.42;;;7.10;99.90;;;;;;5059857;28;20089;-83
2023/04/09 08:48:12;;;;;;;98.82;54.22;;;7.20;99.90;;;;;;5060637;28;20060;-82
2023/04/09 08:50:39;;;;;;;96.45;53.83;;;7.20;99.90;;;;;;5061817;28;20021;-83
2023/04/09 08:53:06;;;;;;;96.00;55.50;;;7.20;99.90;;;;;;5059844;28;20036;-84
2023/04/09 08:55:38;;;;;;;89.38;51.75;;;7.30;99.90;;;;;;5063179;28;20078;-84
2023/04/09 08:58:09;;;;;;;104.82;59.25;;;7.30;99.90;;;;;;5061909;28;20021;-84
2023/04/09 09:00:35;;;;;;;92.13;52.17;;;7.40;99.90;;;;;;5061546;28;20052;-83
2023/04/09 09:03:08;;;;;;;98.65;55.63;;;7.40;99.90;;;;;;5065056;28;20262;-84
2023/04/09 09:05:39;;;;;;;102.10;58.42;;;7.50;99.90;;;;;;5061777;28;20116;-83
2023/04/09 09:08:09;;;;;;;99.10;54.70;;;7.50;99.90;;;;;;5059462;28;20559;-84
2023/04/09 09:10:44;;;;;;;105.45;58.55;;;7.60;99.90;;;;;;5058925;28;20079;-84
2023/04/09 09:13:21;;;;;;;101.45;58.15;;;7.60;99.90;;;;;;5058462;28;20193;-84
2023/04/09 09:15:51;;;;;;;101.75;55.83;;;7.70;99.90;;;;;;5063564;28;20090;-83
2023/04/09 09:18:18;;;;;;;97.47;55.60;;;7.70;99.90;;;;;;5063797;28;20101;-84
2023/04/09 09:20:43;;;;;;;93.03;53.92;;;7.70;99.90;;;;;;5057936;28;21305;-83
2023/04/09 09:23:09;;;;;;;93.32;51.28;;;7.80;99.90;;;;;;5047334;28;20045;-83
2023/04/09 09:25:40;;;;;;;96.10;53.72;;;7.70;99.90;;;;;;5043784;28;20032;-85
2023/04/09 09:28:11;;;;;;;91.45;51.95;;;7.70;99.90;;;;;;5060592;28;20036;-84
2023/04/09 09:30:38;;;;;;;103.45;55.25;;;7.70;99.90;;;;;;5064117;28;20021;-83
2023/04/09 09:33:08;;;;;;;94.13;53.75;;;7.80;99.90;;;;;;5062528;28;20037;-84
2023/04/09 09:35:56;;;;;;;97.93;57.63;;;7.80;99.90;;;;;;5058163;28;20046;-84
2023/04/09 09:38:22;;;;;;;99.90;56.45;;;7.90;99.90;;;;;;5061061;28;20020;-83
2023/04/09 09:40:48;;;;;;;98.20;57.22;;;8.00;99.90;;;;;;5058539;28;20485;-84
2023/04/09 09:43:14;;;;;;;89.00;53.03;;;8.10;99.90;;;;;;5061719;28;20044;-84
2023/04/09 09:45:42;;;;;;;89.68;52.17;;;8.10;99.90;;;;;;5059629;28;20017;-85
2023/04/09 09:48:10;;;;;;;99.53;56.60;;;8.20;99.90;;;;;;5062097;28;20032;-83
2023/04/09 09:50:38;;;;;;;92.40;53.20;;;8.30;99.90;;;;;;5063639;28;20102;-84
2023/04/09 09:53:05;;;;;;;102.50;57.22;;;8.40;99.90;;;;;;5063382;28;20025;-83
2023/04/09 09:55:42;;;;;;;91.68;54.03;;;8.40;99.90;;;;;;5064944;28;20121;-85
2023/04/09 09:58:15;;;;;;;96.25;54.28;;;8.50;99.90;;;;;;5063406;28;20210;-84
2023/04/09 10:00:42;;;;;;;97.65;55.67;;;8.60;99.90;;;;;;5057244;28;20121;-84
2023/04/09 10:03:29;;;;;;;91.95;55.20;;;8.60;99.90;;;;;;5060999;28;20074;-84
2023/04/09 10:05:56;;;;;;;86.63;51.00;;;8.60;99.90;;;;;;5056973;28;20087;-84
2023/04/09 10:08:22;;;;;;;90.10;52.88;;;8.60;99.90;;;;;;5058240;28;20474;-84
2023/04/09 10:10:50;;;;;;;97.05;55.00;;;8.60;99.90;;;;;;5063479;28;20032;-83
2023/04/09 10:13:34;;;;;;;94.22;53.35;;;8.70;99.90;;;;;;5062462;28;20386;-83
2023/04/09 10:16:00;;;;;;;95.72;54.67;;;8.80;99.90;;;;;;5054913;28;20028;-84
2023/04/09 10:18:27;;;;;;;87.70;51.50;;;8.80;99.90;;;;;;5059884;28;20289;-83
2023/04/09 10:21:14;;;;;;;94.05;53.22;;;8.90;99.90;;;;;;5062153;28;20404;-84
2023/04/09 10:23:43;;;;;;;90.72;52.15;;;9.00;99.90;;;;;;5053121;28;20052;-84
2023/04/09 10:26:09;;;;;;;89.13;52.80;;;9.00;99.90;;;;;;5059652;28;20029;-84
2023/04/09 10:28:37;;;;;;;83.75;51.97;;;9.10;99.90;;;;;;5054959;28;20068;-84
2023/04/09 10:31:06;;;;;;;88.85;53.35;;;9.10;99.90;;;;;;5051463;28;20669;-82
2023/04/09 10:33:32;;;;;;;86.88;51.20;;;9.20;99.90;;;;;;5055322;28;20032;-82
2023/04/09 10:36:04;;;;;;;79.35;50.00;;;9.30;99.90;;;;;;5060063;28;20280;-81
2023/04/09 10:38:41;;;;;;;88.90;54.53;;;9.30;99.90;;;;;;5062128;28;20035;-81
2023/04/09 10:41:15;;;;;;;88.05;49.35;;;9.30;99.90;;;;;;5062347;28;20083;-81
2023/04/09 10:43:42;;;;;;;83.18;50.13;;;9.40;99.90;;;;;;5062449;28;20032;-82
2023/04/09 10:46:33;;;;;;;82.25;49.83;;;9.40;99.90;;;;;;5059995;28;20110;-80
2023/04/09 10:49:12;;;;;;;79.88;48.42;;;9.50;99.90;;;;;;5056787;28;20549;-82
2023/04/09 10:51:38;;;;;;;87.95;50.90;;;9.60;99.90;;;;;;5062045;28;20024;-81
2023/04/09 10:54:44;;;;;;;87.60;48.78;;;9.70;99.90;;;;;;5062004;28;20058;-83
2023/04/09 10:57:18;;;;;;;89.82;53.38;;;9.80;99.90;;;;;;5059124;28;20044;-81
2023/04/09 10:59:54;;;;;;;84.20;51.05;;;9.80;99.90;;;;;;5057232;28;20046;-80
2023/04/09 11:02:35;;;;;;;88.45;54.70;;;9.90;99.90;;;;;;5064579;28;20117;-80
2023/04/09 11:05:19;;;;;;;85.53;51.40;;;9.90;99.90;;;;;;5061972;28;20071;-82
2023/04/09 11:08:08;;;;;;;81.32;46.45;;;10.00;99.90;;;;;;5064751;28;20028;-81
2023/04/09 11:10:35;;;;;;;81.60;51.03;;;10.00;99.90;;;;;;5062845;28;20017;-81
2023/04/09 11:13:01;;;;;;;78.90;49.20;;;10.10;99.90;;;;;;5065830;28;20453;-81
2023/04/09 11:15:27;;;;;;;79.57;47.17;;;10.10;99.90;;;;;;5059525;28;20024;-82
2023/04/09 11:17:52;;;;;;;83.18;47.17;;;10.20;99.90;;;;;;5060549;28;20098;-81
2023/04/09 11:20:23;;;;;;;78.07;45.42;;;10.20;99.90;;;;;;5061481;28;20421;-82
2023/04/09 11:22:51;;;;;;;70.20;43.72;;;10.20;99.90;;;;;;5062652;28;20025;-81
2023/04/09 11:25:21;;;;;;;73.78;43.92;;;10.30;99.90;;;;;;5057727;28;20021;-82
2023/04/09 11:27:47;;;;;;;70.38;44.35;;;10.30;99.90;;;;;;5057859;28;20028;-82
2023/04/09 11:30:16;;;;;;;71.97;45.13;;;10.40;99.90;;;;;;5062920;28;20029;-83
2023/04/09 11:32:42;;;;;;;77.72;47.55;;;10.40;99.90;;;;;;5063031;28;20106;-82
2023/04/09 11:35:12;;;;;;;73.45;44.05;;;10.50;99.90;;;;;;5063309;28;20056;-81
2023/04/09 11:37:38;;;;;;;73.50;42.90;;;10.60;99.90;;;;;;5058737;28;20477;-81
2023/04/09 11:40:13;;;;;;;69.35;42.90;;;10.60;99.90;;;;;;5061149;28;20056;-83
2023/04/09 11:42:39;;;;;;;71.63;43.78;;;10.70;99.90;;;;;;5061885;28;20044;-83
2023/04/09 11:45:06;;;;;;;66.10;41.28;;;10.70;99.90;;;;;;5060651;28;20040;-81
2023/04/09 11:47:32;;;;;;;63.70;39.83;;;10.80;99.90;;;;;;5062054;28;20118;-80
2023/04/09 11:49:58;;;;;;;64.85;38.38;;;10.80;99.90;;;;;;5060127;28;20052;-82
2023/04/09 11:52:24;;;;;;;63.35;38.70;;;10.90;99.90;;;;;;5060934;28;20040;-80
2023/04/09 11:54:50;;;;;;;60.33;38.45;;;11.00;99.90;;;;;;5061871;28;20483;-80
2023/04/09 11:57:16;;;;;;;59.78;36.67;;;11.00;99.90;;;;;;5058849;28;20529;-80
2023/04/09 11:59:42;;;;;;;58.45;37.30;;;11.10;99.90;;;;;;5054372;28;20031;-81
2023/04/09 12:02:08;;;;;;;58.10;36.45;;;11.10;99.90;;;;;;5060296;28;20477;-80
2023/04/09 12:04:33;;;;;;;62.10;35.50;;;11.20;99.90;;;;;;5061305;28;20032;-80
2023/04/09 12:06:59;;;;;;;57.90;35.35;;;11.20;99.90;;;;;;5060850;28;20028;-82
2023/04/09 12:09:25;;;;;;;67.55;40.88;;;11.30;99.90;;;;;;5064181;28;20512;-80
2023/04/09 12:11:51;;;;;;;60.67;37.47;;;11.30;99.90;;;;;;5061232;28;20507;-80
2023/04/09 12:14:17;;;;;;;55.00;35.53;;;11.40;99.90;;;;;;5060884;28;20017;-80
2023/04/09 12:16:44;;;;;;;63.13;37.80;;;11.50;99.90;;;;;;5061479;28;20093;-81
2023/04/09 12:19:10;;;;;;;62.38;37.22;;;11.50;99.90;;;;;;5060974;28;20032;-80
2023/04/09 12:21:54;;;;;;;60.45;38.70;;;11.50;99.90;;;;;;5059744;28;20111;-82
2023/04/09 12:24:27;;;;;;;45.60;29.10;;;11.60;99.90;;;;;;5065292;28;20039;-80
2023/04/09 12:26:53;;;;;;;44.72;29.20;;;11.70;99.90;;;;;;5054923;28;20539;-81
2023/04/09 12:29:20;;;;;;;52.20;32.38;;;11.90;99.90;;;;;;5069234;28;20021;-80
2023/04/09 12:31:46;;;;;;;54.22;32.70;;;12.00;99.90;;;;;;5061934;28;20029;-80
2023/04/09 12:34:12;;;;;;;38.72;22.45;;;12.10;99.90;;;;;;5060314;28;20587;-82